Time;durP1;ratioP1;P1;durP2;ratioP2;P2;SDS_P1;SDS_P2;PMS_P1;PMS_P2;Temp;Humidity;BMP_temperature;BMP_pressure;BME280_temperature;BME280_humidity;BME280_pressure;Samples;Min_cycle;Max_cycle;Signal;HPM_P1;HPM_P2
2021/08/24 00:02:17;;;;;;;12.57;4.43;;;15.70;99.90;;;;;;5067681;28;20048;-78
2021/08/24 00:04:42;;;;;;;12.75;4.45;;;15.60;99.90;;;;;;5066121;28;20048;-78
2021/08/24 00:07:08;;;;;;;10.63;4.25;;;15.50;99.90;;;;;;5066411;28;20036;-79
2021/08/24 00:09:35;;;;;;;10.70;4.30;;;15.70;99.90;;;;;;5051676;28;20040;-79
2021/08/24 00:12:01;;;;;;;14.15;4.95;;;15.70;99.90;;;;;;5068722;28;20037;-78
2021/08/24 00:14:27;;;;;;;12.20;4.50;;;15.60;99.90;;;;;;5066720;28;20047;-78
2021/08/24 00:16:52;;;;;;;10.35;5.20;;;15.60;99.90;;;;;;5068291;28;20087;-78
2021/08/24 00:19:18;;;;;;;11.13;4.70;;;15.70;99.90;;;;;;5068933;28;20191;-78
2021/08/24 00:21:44;;;;;;;11.77;4.85;;;15.50;99.90;;;;;;5064930;28;20132;-78
2021/08/24 00:24:11;;;;;;;9.43;4.30;;;15.60;99.90;;;;;;5042780;28;20119;-78
2021/08/24 00:26:38;;;;;;;9.27;4.65;;;15.60;99.90;;;;;;5065883;28;20048;-78
2021/08/24 00:29:04;;;;;;;11.20;4.70;;;15.50;99.90;;;;;;5065105;28;20048;-78
2021/08/24 00:31:30;;;;;;;11.35;4.88;;;15.50;99.90;;;;;;5066204;28;20048;-78
2021/08/24 00:33:56;;;;;;;12.32;4.85;;;15.40;99.90;;;;;;5047545;28;20411;-78
2021/08/24 00:36:22;;;;;;;12.25;4.97;;;15.40;99.90;;;;;;5065907;28;20037;-78
2021/08/24 00:38:49;;;;;;;18.33;4.97;;;15.40;99.90;;;;;;5069125;28;20395;-78
2021/08/24 00:41:16;;;;;;;16.20;5.10;;;15.30;99.90;;;;;;5066643;28;20028;-78
2021/08/24 00:43:43;;;;;;;9.80;4.22;;;15.30;99.90;;;;;;5065099;28;20359;-78
2021/08/24 00:46:28;;;;;;;15.68;5.25;;;15.30;99.90;;;;;;5060606;28;20042;-78
2021/08/24 00:48:53;;;;;;;11.55;5.03;;;15.30;99.90;;;;;;5066927;28;20044;-79
2021/08/24 00:51:23;;;;;;;13.20;5.30;;;15.20;99.90;;;;;;5051771;28;20044;-78
2021/08/24 00:53:49;;;;;;;10.50;5.20;;;15.20;99.90;;;;;;5063300;28;20040;-78
2021/08/24 00:56:15;;;;;;;13.73;4.95;;;15.10;99.90;;;;;;5048298;28;20036;-79
2021/08/24 00:58:42;;;;;;;12.63;5.75;;;15.20;99.90;;;;;;5068513;28;20479;-78
2021/08/24 01:01:08;;;;;;;12.63;5.13;;;15.10;99.90;;;;;;5065707;28;20032;-79
2021/08/24 01:03:44;;;;;;;9.05;5.13;;;15.10;99.90;;;;;;5068031;28;20124;-78
2021/08/24 01:06:44;;;;;;;13.35;5.95;;;15.10;99.90;;;;;;5064468;28;20472;-78
2021/08/24 01:09:32;;;;;;;16.02;5.88;;;15.00;99.90;;;;;;5048350;28;20040;-79
2021/08/24 01:12:26;;;;;;;15.50;6.20;;;14.90;99.90;;;;;;5044547;28;20036;-80
2021/08/24 01:15:25;;;;;;;11.07;5.95;;;14.90;99.90;;;;;;5048676;28;20472;-79
2021/08/24 01:17:58;;;;;;;10.95;6.35;;;14.80;99.90;;;;;;5056749;28;20045;-79
2021/08/24 01:20:44;;;;;;;12.00;6.30;;;14.80;99.90;;;;;;5047344;28;20029;-79
2021/08/24 01:23:29;;;;;;;17.23;6.88;;;14.80;99.90;;;;;;5041805;28;20045;-80
2021/08/24 01:26:02;;;;;;;15.63;6.70;;;14.70;99.90;;;;;;5059497;28;20080;-79
2021/08/24 01:28:43;;;;;;;12.10;6.70;;;14.70;99.90;;;;;;5044591;28;20492;-81
2021/08/24 01:31:27;;;;;;;11.70;6.28;;;14.70;99.90;;;;;;5058341;28;20044;-80
2021/08/24 01:33:59;;;;;;;16.70;7.60;;;14.80;99.90;;;;;;5049115;28;20036;-78
2021/08/24 01:36:31;;;;;;;15.93;6.90;;;14.70;99.90;;;;;;5047973;28;20291;-78
2021/08/24 01:39:09;;;;;;;15.15;6.18;;;14.70;99.90;;;;;;5064511;28;20379;-78
2021/08/24 01:42:11;;;;;;;13.43;5.70;;;14.80;99.90;;;;;;5050633;28;20116;-78
2021/08/24 01:44:44;;;;;;;11.40;5.30;;;14.80;99.90;;;;;;5067215;28;20040;-78
2021/08/24 01:47:22;;;;;;;17.20;5.47;;;14.80;99.90;;;;;;5063928;28;20048;-78
2021/08/24 01:50:05;;;;;;;12.13;5.10;;;14.90;99.90;;;;;;5047182;28;20044;-78
2021/08/24 01:52:35;;;;;;;11.15;5.07;;;14.90;99.90;;;;;;5063361;28;20029;-78
2021/08/24 01:55:10;;;;;;;13.15;5.00;;;15.00;99.90;;;;;;5065311;28;20045;-78
2021/08/24 01:57:43;;;;;;;16.33;5.55;;;15.00;99.90;;;;;;5046814;28;20403;-78
2021/08/24 02:00:11;;;;;;;12.55;5.15;;;15.10;99.90;;;;;;5050474;28;20041;-78
2021/08/24 02:02:41;;;;;;;13.40;4.80;;;15.10;99.90;;;;;;5064854;28;20044;-78
2021/08/24 02:05:23;;;;;;;9.73;5.15;;;15.10;99.90;;;;;;5065527;28;20467;-78
2021/08/24 02:07:54;;;;;;;11.77;4.97;;;15.10;99.90;;;;;;5036543;28;20471;-78
2021/08/24 02:10:23;;;;;;;13.40;5.57;;;15.10;99.90;;;;;;5046951;28;20559;-78
2021/08/24 02:12:52;;;;;;;14.90;5.57;;;15.10;99.90;;;;;;5050721;28;20479;-78
2021/08/24 02:15:35;;;;;;;14.88;5.97;;;15.00;99.90;;;;;;5051680;28;20065;-78
2021/08/24 02:18:01;;;;;;;17.27;5.97;;;15.00;99.90;;;;;;5071562;28;20039;-78
2021/08/24 02:20:41;;;;;;;13.95;6.05;;;15.00;99.90;;;;;;5054508;28;20514;-78
2021/08/24 02:23:15;;;;;;;14.27;6.00;;;15.00;99.90;;;;;;5065392;28;20376;-78
2021/08/24 02:25:45;;;;;;;14.50;5.70;;;14.90;99.90;;;;;;5066115;28;20067;-78
2021/08/24 02:28:32;;;;;;;14.25;6.28;;;14.90;99.90;;;;;;5066157;28;20119;-78
2021/08/24 02:31:10;;;;;;;21.10;6.78;;;14.90;99.90;;;;;;5051150;28;20037;-78
2021/08/24 02:33:44;;;;;;;15.32;5.82;;;14.90;99.90;;;;;;5066750;28;20049;-78
2021/08/24 02:36:12;;;;;;;20.13;6.30;;;14.80;99.90;;;;;;5066072;28;20094;-78
2021/08/24 02:39:01;;;;;;;15.38;6.47;;;14.80;99.90;;;;;;5086634;28;20105;-78
2021/08/24 02:41:41;;;;;;;19.40;7.20;;;14.80;99.90;;;;;;5068292;28;20124;-78
2021/08/24 02:44:20;;;;;;;16.55;6.15;;;14.80;99.90;;;;;;5052441;28;20398;-78
2021/08/24 02:46:51;;;;;;;14.00;6.13;;;14.80;99.90;;;;;;5051552;28;20028;-78
2021/08/24 02:49:23;;;;;;;20.25;6.20;;;14.70;99.90;;;;;;5067636;28;20076;-78
2021/08/24 02:51:51;;;;;;;12.00;5.72;;;14.70;99.90;;;;;;5041823;28;20044;-78
2021/08/24 02:54:17;;;;;;;18.27;6.25;;;14.70;99.90;;;;;;5067902;28;20098;-78
2021/08/24 02:56:43;;;;;;;14.75;6.20;;;14.70;99.90;;;;;;5050638;28;20333;-78
2021/08/24 02:59:08;;;;;;;18.60;6.13;;;14.70;99.90;;;;;;5068526;28;20131;-78
2021/08/24 03:01:35;;;;;;;10.98;5.30;;;14.70;99.90;;;;;;5067915;28;20033;-78
2021/08/24 03:04:02;;;;;;;14.15;5.65;;;14.70;99.90;;;;;;5070084;28;20066;-79
2021/08/24 03:06:31;;;;;;;15.25;5.88;;;14.70;99.90;;;;;;5070048;28;20064;-78
2021/08/24 03:08:57;;;;;;;15.52;5.78;;;14.80;99.90;;;;;;5069210;28;20394;-78
2021/08/24 03:11:27;;;;;;;15.95;5.45;;;14.80;99.90;;;;;;5051158;28;20074;-78
2021/08/24 03:14:55;;;;;;;16.00;5.80;;;14.70;99.90;;;;;;5063424;28;20515;-78
2021/08/24 03:17:26;;;;;;;15.98;5.82;;;14.70;99.90;;;;;;4936605;28;20043;-78
2021/08/24 03:19:56;;;;;;;12.57;5.70;;;14.70;99.90;;;;;;4953885;28;20058;-78
2021/08/24 03:22:23;;;;;;;12.90;5.60;;;14.70;99.90;;;;;;4951570;28;20928;-78
2021/08/24 03:24:49;;;;;;;15.95;6.13;;;14.70;99.90;;;;;;4950899;28;20664;-78
2021/08/24 03:27:15;;;;;;;17.75;5.82;;;14.70;99.90;;;;;;4966965;28;20137;-78
2021/08/24 03:29:55;;;;;;;16.65;6.07;;;14.60;99.90;;;;;;4950611;28;20066;-78
2021/08/24 03:32:21;;;;;;;11.23;5.22;;;14.80;99.90;;;;;;4953433;28;20038;-78
2021/08/24 03:34:47;;;;;;;11.85;6.00;;;14.70;99.90;;;;;;4952221;28;20042;-78
2021/08/24 03:37:12;;;;;;;15.13;5.60;;;14.70;99.90;;;;;;4954026;28;20047;-78
2021/08/24 03:39:38;;;;;;;16.73;5.88;;;14.70;99.90;;;;;;4966075;28;20062;-78
2021/08/24 03:42:03;;;;;;;11.35;5.45;;;14.60;99.90;;;;;;4953156;28;20101;-78
2021/08/24 03:44:29;;;;;;;14.18;6.03;;;14.60;99.90;;;;;;4952994;28;20039;-78
2021/08/24 03:46:55;;;;;;;14.48;5.38;;;14.60;99.90;;;;;;4951992;28;20058;-78
2021/08/24 03:49:21;;;;;;;16.17;6.03;;;14.60;99.90;;;;;;4950478;28;20759;-78
2021/08/24 03:51:46;;;;;;;13.43;5.95;;;14.60;99.90;;;;;;4937654;28;20270;-78
2021/08/24 03:54:12;;;;;;;13.05;5.53;;;14.60;99.90;;;;;;5063576;28;20132;-78
2021/08/24 03:56:40;;;;;;;15.50;6.22;;;14.60;99.90;;;;;;5049087;28;20471;-78
2021/08/24 03:59:05;;;;;;;12.55;5.63;;;14.50;99.90;;;;;;5065497;28;20091;-78
2021/08/24 04:01:31;;;;;;;19.55;5.57;;;14.50;99.90;;;;;;5065612;28;20044;-78
2021/08/24 04:03:58;;;;;;;12.23;5.93;;;14.40;99.90;;;;;;5068174;28;20085;-78
2021/08/24 04:06:23;;;;;;;23.05;6.68;;;14.40;99.90;;;;;;5050783;28;20056;-78
2021/08/24 04:08:49;;;;;;;13.95;5.07;;;14.50;99.90;;;;;;5050791;28;20044;-78
2021/08/24 04:11:16;;;;;;;16.70;6.00;;;14.40;99.90;;;;;;5063774;28;20355;-78
2021/08/24 04:13:42;;;;;;;10.45;5.53;;;14.40;99.90;;;;;;5067557;28;20068;-78
2021/08/24 04:16:11;;;;;;;15.32;5.90;;;14.30;99.90;;;;;;5051052;28;20075;-78
2021/08/24 04:18:39;;;;;;;13.02;5.78;;;14.30;99.90;;;;;;5068208;28;20542;-78
2021/08/24 04:21:10;;;;;;;10.27;5.55;;;14.30;99.90;;;;;;5049248;28;20047;-79
2021/08/24 04:23:36;;;;;;;17.30;5.70;;;14.30;99.90;;;;;;5065694;28;20052;-78
2021/08/24 04:26:02;;;;;;;16.45;5.75;;;14.20;99.90;;;;;;5066754;28;20063;-78
2021/08/24 04:28:27;;;;;;;11.23;5.32;;;14.20;99.90;;;;;;5050650;28;20412;-78
2021/08/24 04:30:53;;;;;;;14.32;5.57;;;14.20;99.90;;;;;;5048853;28;20433;-78
2021/08/24 04:33:22;;;;;;;10.80;5.55;;;14.20;99.90;;;;;;5044969;28;20441;-80
2021/08/24 04:35:55;;;;;;;7.75;3.78;;;14.10;99.90;;;;;;5030765;28;20405;-81
2021/08/24 04:38:21;;;;;;;10.98;4.68;;;14.30;99.90;;;;;;5043632;28;20041;-82
2021/08/24 04:40:47;;;;;;;11.60;4.07;;;14.40;99.90;;;;;;5057750;28;20847;-80
2021/08/24 04:43:14;;;;;;;9.30;4.68;;;14.60;99.90;;;;;;5054206;28;20109;-81
2021/08/24 04:45:40;;;;;;;11.90;5.40;;;14.60;99.90;;;;;;5057551;28;20082;-81
2021/08/24 04:48:06;;;;;;;11.05;4.90;;;14.50;99.90;;;;;;5055132;28;20040;-81
2021/08/24 04:50:33;;;;;;;11.77;4.57;;;14.50;99.90;;;;;;5054792;28;20038;-81
2021/08/24 04:52:58;;;;;;;9.52;4.00;;;14.60;99.90;;;;;;5060640;28;20104;-81
2021/08/24 04:55:24;;;;;;;10.65;4.47;;;14.60;99.90;;;;;;5063571;28;20186;-82
2021/08/24 04:57:50;;;;;;;11.68;3.80;;;14.50;99.90;;;;;;5062181;28;20048;-82
2021/08/24 05:00:16;;;;;;;9.50;4.47;;;14.60;99.90;;;;;;5064972;28;20403;-80
2021/08/24 05:02:41;;;;;;;8.90;4.40;;;14.60;99.90;;;;;;5066557;28;20041;-82
2021/08/24 05:05:08;;;;;;;14.57;5.78;;;14.60;99.90;;;;;;5061673;28;20044;-80
2021/08/24 05:07:34;;;;;;;14.43;4.68;;;14.60;99.90;;;;;;5060996;28;20039;-81
2021/08/24 05:10:01;;;;;;;9.38;4.38;;;14.70;99.90;;;;;;5062511;28;20387;-81
2021/08/24 05:12:27;;;;;;;9.98;4.18;;;14.70;99.90;;;;;;5060861;28;20036;-81
2021/08/24 05:14:53;;;;;;;11.60;4.72;;;14.70;99.90;;;;;;5049286;28;20048;-81
2021/08/24 05:17:18;;;;;;;9.82;4.60;;;14.80;99.90;;;;;;5044493;28;20643;-81
2021/08/24 05:19:44;;;;;;;9.27;3.60;;;14.80;99.90;;;;;;5062514;28;20037;-82
2021/08/24 05:22:09;;;;;;;10.02;4.60;;;14.90;99.90;;;;;;5069671;28;20025;-81
2021/08/24 05:24:36;;;;;;;8.57;4.70;;;14.90;99.90;;;;;;5068222;28;20040;-82
2021/08/24 05:27:03;;;;;;;11.27;5.30;;;14.90;99.90;;;;;;5050135;28;20391;-79
2021/08/24 05:29:30;;;;;;;11.82;5.32;;;14.90;99.90;;;;;;5067443;28;20025;-80
2021/08/24 05:31:55;;;;;;;11.95;4.55;;;15.10;99.90;;;;;;5067150;28;20391;-78
2021/08/24 05:34:21;;;;;;;10.80;5.75;;;15.20;99.90;;;;;;5067642;28;20028;-79
2021/08/24 05:36:47;;;;;;;11.25;4.10;;;15.30;99.90;;;;;;5050527;28;20052;-79
2021/08/24 05:39:12;;;;;;;6.30;3.08;;;15.30;99.90;;;;;;5052257;28;20222;-77
2021/08/24 05:41:39;;;;;;;11.35;4.72;;;15.50;99.90;;;;;;5066534;28;20426;-79
2021/08/24 05:44:06;;;;;;;11.00;5.25;;;15.40;99.90;;;;;;5067427;28;20051;-78
2021/08/24 05:46:32;;;;;;;13.02;4.68;;;15.60;99.90;;;;;;5070054;28;20029;-78
2021/08/24 05:48:58;;;;;;;12.60;5.72;;;15.50;99.90;;;;;;5073305;28;20357;-79
2021/08/24 05:51:24;;;;;;;9.80;4.95;;;15.40;99.90;;;;;;5052628;28;20536;-79
2021/08/24 05:53:50;;;;;;;11.32;5.63;;;15.30;99.90;;;;;;5069699;28;20047;-77
2021/08/24 05:56:20;;;;;;;10.75;4.70;;;15.40;99.90;;;;;;5051102;28;20502;-77
2021/08/24 05:58:46;;;;;;;13.10;5.18;;;15.50;99.90;;;;;;5082121;28;20087;-76
2021/08/24 06:01:22;;;;;;;9.77;6.25;;;15.50;99.90;;;;;;5053414;28;20123;-76
2021/08/24 06:03:49;;;;;;;13.88;6.05;;;15.40;99.90;;;;;;5068120;28;20127;-79
2021/08/24 06:06:28;;;;;;;15.10;5.97;;;15.50;99.90;;;;;;5052821;28;20549;-78
2021/08/24 06:08:55;;;;;;;12.63;5.80;;;15.50;99.90;;;;;;5068146;28;20075;-79
2021/08/24 06:11:23;;;;;;;10.00;6.25;;;15.40;99.90;;;;;;5069464;28;20418;-79
2021/08/24 06:13:49;;;;;;;13.93;5.68;;;15.40;99.90;;;;;;5068840;28;21256;-79
2021/08/24 06:16:15;;;;;;;12.35;4.70;;;15.50;99.90;;;;;;5066947;28;20086;-79
2021/08/24 06:18:50;;;;;;;9.25;4.10;;;15.70;99.90;;;;;;5069408;28;20072;-78
2021/08/24 06:21:17;;;;;;;6.55;3.20;;;15.60;99.90;;;;;;5068792;28;20040;-79
2021/08/24 06:23:43;;;;;;;15.32;4.95;;;15.80;99.90;;;;;;5052279;28;20035;-79
2021/08/24 06:26:09;;;;;;;12.32;4.88;;;15.80;99.90;;;;;;5066657;28;20044;-79
2021/08/24 06:28:35;;;;;;;8.05;4.72;;;15.80;99.90;;;;;;5053176;28;20123;-79
2021/08/24 06:31:01;;;;;;;10.45;4.57;;;16.00;99.90;;;;;;5051105;28;20048;-78
2021/08/24 06:33:30;;;;;;;8.82;3.58;;;16.10;99.90;;;;;;5064844;28;20103;-79
2021/08/24 06:35:56;;;;;;;12.32;4.00;;;16.20;99.90;;;;;;5066981;28;20051;-79
2021/08/24 06:38:22;;;;;;;9.57;3.53;;;16.30;99.90;;;;;;5049562;28;20131;-79
2021/08/24 06:40:48;;;;;;;12.02;3.67;;;16.30;99.90;;;;;;5054056;28;20128;-79
2021/08/24 06:43:15;;;;;;;10.18;3.58;;;16.20;99.90;;;;;;5069839;28;20514;-80
2021/08/24 06:45:41;;;;;;;10.18;4.05;;;16.30;99.90;;;;;;5067229;28;20078;-79
2021/08/24 06:48:07;;;;;;;11.40;3.30;;;16.30;99.90;;;;;;5051856;28;20075;-80
2021/08/24 06:50:33;;;;;;;9.32;3.20;;;16.30;99.90;;;;;;5048880;28;20102;-80
2021/08/24 06:53:00;;;;;;;7.22;3.03;;;16.40;99.90;;;;;;5043593;28;20449;-79
2021/08/24 06:55:30;;;;;;;7.97;3.00;;;16.40;99.90;;;;;;5059663;28;20044;-80
2021/08/24 06:57:56;;;;;;;9.48;3.13;;;16.40;99.90;;;;;;5041341;28;20203;-80
2021/08/24 07:00:23;;;;;;;9.80;3.10;;;16.50;99.90;;;;;;5058094;28;20076;-79
2021/08/24 07:02:50;;;;;;;7.07;3.03;;;16.60;99.90;;;;;;5066763;28;20056;-80
2021/08/24 07:05:24;;;;;;;6.85;2.60;;;16.60;99.90;;;;;;5050532;28;20067;-79
2021/08/24 07:07:50;;;;;;;8.80;2.50;;;16.70;99.90;;;;;;5064837;28;20075;-79
2021/08/24 07:10:17;;;;;;;12.63;2.80;;;16.80;99.90;;;;;;5067207;28;20841;-78
2021/08/24 07:12:43;;;;;;;11.13;2.70;;;16.90;99.90;;;;;;5052186;28;20044;-80
2021/08/24 07:15:10;;;;;;;8.43;2.85;;;16.90;99.90;;;;;;5066523;28;20133;-79
2021/08/24 07:17:37;;;;;;;7.93;2.72;;;16.90;99.90;;;;;;5067872;28;20066;-79
2021/08/24 07:20:05;;;;;;;7.53;2.70;;;17.00;99.90;;;;;;5067589;28;20515;-79
2021/08/24 07:22:31;;;;;;;8.35;3.00;;;17.00;99.90;;;;;;5052055;28;20127;-83
2021/08/24 07:24:57;;;;;;;11.23;3.10;;;17.10;99.90;;;;;;5061066;28;20082;-79
2021/08/24 07:27:23;;;;;;;12.13;3.47;;;17.10;99.90;;;;;;5048887;28;20425;-83
2021/08/24 07:29:49;;;;;;;7.20;3.00;;;17.10;99.90;;;;;;5036168;28;20040;-80
2021/08/24 07:32:15;;;;;;;9.32;3.33;;;17.20;99.90;;;;;;5069150;28;20055;-81
2021/08/24 07:34:40;;;;;;;7.05;2.63;;;17.20;99.90;;;;;;5050766;28;20056;-80
2021/08/24 07:37:06;;;;;;;9.73;3.22;;;17.30;99.90;;;;;;5071151;28;20029;-83
2021/08/24 07:39:32;;;;;;;6.90;2.85;;;17.50;99.90;;;;;;5071255;28;20131;-83
2021/08/24 07:41:58;;;;;;;9.15;3.03;;;17.50;99.90;;;;;;5066997;28;20036;-80
2021/08/24 07:44:26;;;;;;;4.68;2.28;;;17.50;99.90;;;;;;5066682;28;20439;-81
2021/08/24 07:46:52;;;;;;;8.35;3.03;;;17.60;99.90;;;;;;5067992;28;20040;-80
2021/08/24 07:49:18;;;;;;;7.57;3.10;;;17.60;99.90;;;;;;5066281;28;20186;-78
2021/08/24 07:51:45;;;;;;;6.72;2.72;;;17.60;99.90;;;;;;5051523;28;20360;-80
2021/08/24 07:54:11;;;;;;;6.38;2.63;;;17.60;99.90;;;;;;5068796;28;20097;-80
2021/08/24 07:56:37;;;;;;;8.77;2.90;;;17.70;99.90;;;;;;5065078;28;20052;-80
2021/08/24 07:59:02;;;;;;;7.80;2.78;;;17.70;99.90;;;;;;5068231;28;20155;-79
2021/08/24 08:01:28;;;;;;;8.48;2.92;;;17.80;99.90;;;;;;5060402;28;20401;-81
2021/08/24 08:03:54;;;;;;;7.88;2.88;;;17.90;99.90;;;;;;5053611;28;20322;-78
2021/08/24 08:06:39;;;;;;;6.10;2.63;;;17.90;99.90;;;;;;5070820;28;20132;-82
2021/08/24 08:09:06;;;;;;;7.57;2.75;;;17.90;99.90;;;;;;5065869;28;20063;-81
2021/08/24 08:11:36;;;;;;;13.73;2.42;;;18.00;99.90;;;;;;5065998;28;20064;-79
2021/08/24 08:14:02;;;;;;;10.10;2.55;;;18.10;99.90;;;;;;5071134;28;20125;-79
2021/08/24 08:16:27;;;;;;;6.68;2.50;;;18.30;99.90;;;;;;5051890;28;20032;-79
2021/08/24 08:18:53;;;;;;;10.45;2.78;;;18.20;99.90;;;;;;5050304;28;20344;-79
2021/08/24 08:21:20;;;;;;;6.45;2.10;;;18.30;99.90;;;;;;5070541;28;20403;-80
2021/08/24 08:23:46;;;;;;;15.18;2.88;;;18.30;99.90;;;;;;5051301;28;20071;-80
2021/08/24 08:26:12;;;;;;;4.32;2.28;;;18.50;99.90;;;;;;5049209;28;20127;-82
2021/08/24 08:28:38;;;;;;;4.93;2.30;;;18.60;99.90;;;;;;5051702;28;20190;-81
2021/08/24 08:31:04;;;;;;;7.57;2.55;;;18.60;99.90;;;;;;5065592;28;20071;-82
2021/08/24 08:33:33;;;;;;;3.42;2.25;;;18.60;99.90;;;;;;5052006;28;20076;-82
2021/08/24 08:35:58;;;;;;;11.80;2.67;;;18.50;99.90;;;;;;5051053;28;20048;-82
2021/08/24 08:38:24;;;;;;;9.75;2.10;;;18.50;99.90;;;;;;5050324;28;20376;-81
2021/08/24 08:41:14;;;;;;;10.70;2.58;;;18.50;99.90;;;;;;5067099;28;20086;-81
2021/08/24 08:44:04;;;;;;;5.22;2.47;;;18.70;99.90;;;;;;5068532;28;20040;-80
2021/08/24 08:46:43;;;;;;;5.75;2.53;;;18.70;99.90;;;;;;5067302;28;20496;-81
2021/08/24 08:49:24;;;;;;;10.02;2.97;;;18.70;99.90;;;;;;5084282;28;20438;-82
2021/08/24 08:52:07;;;;;;;6.32;2.13;;;18.80;99.90;;;;;;5069472;28;20109;-82
2021/08/24 08:54:54;;;;;;;5.18;2.22;;;18.90;99.90;;;;;;5063794;28;20072;-81
2021/08/24 08:57:27;;;;;;;7.43;2.40;;;18.90;99.90;;;;;;5067682;28;20360;-82
2021/08/24 09:00:18;;;;;;;7.93;2.30;;;18.80;99.90;;;;;;5068623;28;20503;-81
2021/08/24 09:03:04;;;;;;;6.55;2.42;;;18.80;99.90;;;;;;5068657;28;20039;-82
2021/08/24 09:05:30;;;;;;;6.30;2.15;;;18.90;99.90;;;;;;5068799;28;20040;-83
2021/08/24 09:07:58;;;;;;;5.13;2.60;;;19.00;99.90;;;;;;5067440;28;20082;-82
2021/08/24 09:10:57;;;;;;;6.55;2.63;;;19.00;99.90;;;;;;5067947;28;20056;-83
2021/08/24 09:13:50;;;;;;;3.75;2.13;;;19.00;99.90;;;;;;5053746;28;20044;-81
2021/08/24 09:16:32;;;;;;;5.47;2.08;;;19.00;99.90;;;;;;5067215;28;20036;-83
2021/08/24 09:19:14;;;;;;;10.85;2.53;;;19.00;99.90;;;;;;5051868;28;20420;-80
2021/08/24 09:21:46;;;;;;;9.82;2.40;;;19.10;99.90;;;;;;5067906;28;20048;-81
2021/08/24 09:24:16;;;;;;;7.03;2.10;;;19.30;99.90;;;;;;5068874;28;20060;-81
2021/08/24 09:27:02;;;;;;;8.82;2.25;;;19.30;99.90;;;;;;5045616;28;20052;-82
2021/08/24 09:29:33;;;;;;;6.30;2.65;;;19.40;99.90;;;;;;5063698;28;20091;-80
2021/08/24 09:32:02;;;;;;;9.07;2.50;;;19.30;99.90;;;;;;5067247;28;20040;-79
2021/08/24 09:34:32;;;;;;;5.40;2.10;;;19.20;99.90;;;;;;5051831;28;20052;-79
2021/08/24 09:36:58;;;;;;;8.10;2.33;;;19.30;99.90;;;;;;5051735;28;20052;-79
2021/08/24 09:39:47;;;;;;;5.70;2.10;;;19.30;99.90;;;;;;5068484;28;20055;-80
2021/08/24 09:42:12;;;;;;;7.35;2.45;;;19.40;99.90;;;;;;5068398;28;20144;-80
2021/08/24 09:44:38;;;;;;;9.15;2.40;;;19.40;99.90;;;;;;5061160;28;20071;-81
2021/08/24 09:47:16;;;;;;;6.82;2.33;;;19.40;99.90;;;;;;5067087;28;20049;-80
2021/08/24 09:49:43;;;;;;;4.82;1.75;;;19.30;99.90;;;;;;5064767;28;20476;-82
2021/08/24 09:52:24;;;;;;;7.75;2.40;;;19.40;99.90;;;;;;5064059;28;20045;-78
2021/08/24 09:54:53;;;;;;;7.00;2.15;;;19.50;99.90;;;;;;5056265;28;20084;-81
2021/08/24 09:57:46;;;;;;;6.38;2.10;;;19.60;99.90;;;;;;5043737;28;20340;-82
2021/08/24 10:00:21;;;;;;;5.82;1.92;;;19.60;99.90;;;;;;5047988;28;20048;-81
2021/08/24 10:02:58;;;;;;;4.82;2.00;;;19.60;99.90;;;;;;5074914;28;20482;-81
2021/08/24 10:05:23;;;;;;;7.47;1.98;;;19.70;99.90;;;;;;5063321;28;20052;-81
2021/08/24 10:07:55;;;;;;;7.53;2.38;;;19.80;99.90;;;;;;5066698;28;20049;-81
2021/08/24 10:10:23;;;;;;;6.43;2.53;;;20.00;99.90;;;;;;5064569;28;20056;-80
2021/08/24 10:12:52;;;;;;;4.90;2.20;;;20.00;99.90;;;;;;5063279;28;20317;-81
2021/08/24 10:15:36;;;;;;;5.05;2.10;;;20.10;99.90;;;;;;5065090;28;20048;-82
2021/08/24 10:18:08;;;;;;;5.27;2.20;;;20.30;99.90;;;;;;5066092;28;20048;-82
2021/08/24 10:20:49;;;;;;;4.88;2.28;;;20.40;99.90;;;;;;5065949;28;20058;-82
2021/08/24 10:23:23;;;;;;;5.55;2.03;;;20.40;99.90;;;;;;5063946;28;20382;-82
2021/08/24 10:25:52;;;;;;;4.55;2.00;;;20.30;99.90;;;;;;5065146;28;20461;-82
2021/08/24 10:28:19;;;;;;;5.55;2.05;;;20.20;99.90;;;;;;5063961;28;20523;-81
2021/08/24 10:31:01;;;;;;;3.88;2.10;;;20.10;99.90;;;;;;5048921;28;20074;-80
2021/08/24 10:33:52;;;;;;;6.60;2.38;;;20.20;99.90;;;;;;5050914;28;20384;-82
2021/08/24 10:36:43;;;;;;;3.63;2.17;;;20.30;99.90;;;;;;5053331;28;20387;-82
2021/08/24 10:39:27;;;;;;;6.78;2.17;;;20.40;99.90;;;;;;5053025;28;20056;-83
2021/08/24 10:42:02;;;;;;;5.68;2.15;;;20.60;99.90;;;;;;5047399;28;20059;-83
2021/08/24 10:44:29;;;;;;;;;;;20.90;99.90;;;;;;5071308;28;20048;-80
2021/08/24 10:47:04;;;;;;;5.53;2.30;;;21.00;99.90;;;;;;5052499;28;19928;-82
2021/08/24 10:49:31;;;;;;;4.47;2.13;;;21.10;99.90;;;;;;5068831;28;20048;-81
2021/08/24 10:52:18;;;;;;;3.60;2.03;;;21.30;99.90;;;;;;5069141;28;20127;-83
2021/08/24 10:54:57;;;;;;;6.35;2.13;;;21.60;99.90;;;;;;5051279;28;20052;-81
2021/08/24 10:57:27;;;;;;;7.82;2.35;;;21.90;99.90;;;;;;5068096;28;20040;-81
2021/08/24 11:00:11;;;;;;;6.60;2.35;;;22.40;99.90;;;;;;5054264;28;20360;-81
2021/08/24 11:02:59;;;;;;;6.95;2.38;;;22.40;99.90;;;;;;5052679;28;20403;-81
2021/08/24 11:05:48;;;;;;;5.63;2.47;;;21.90;99.90;;;;;;5066896;28;20052;-81
2021/08/24 11:08:43;;;;;;;4.75;2.17;;;21.50;99.90;;;;;;5067753;28;20040;-81
2021/08/24 11:11:18;;;;;;;;;;;21.30;99.90;;;;;;5066746;28;20137;-81
2021/08/24 11:13:59;;;;;;;4.03;2.08;;;21.60;99.90;;;;;;5066953;28;19931;-81
2021/08/24 11:16:38;;;;;;;3.58;1.90;;;21.60;99.90;;;;;;5051781;28;20090;-81
2021/08/24 11:19:16;;;;;;;6.38;2.22;;;21.50;99.90;;;;;;5051736;28;20056;-82
2021/08/24 11:22:06;;;;;;;4.18;2.08;;;21.50;99.90;;;;;;5051699;28;20093;-79
2021/08/24 11:24:47;;;;;;;6.60;2.35;;;21.80;99.90;;;;;;5068093;28;20511;-79
2021/08/24 11:27:56;;;;;;;9.00;2.63;;;22.20;99.90;;;;;;5050393;28;20049;-81
2021/08/24 11:30:45;;;;;;;3.92;2.20;;;21.90;99.90;;;;;;5011337;28;20053;-79
2021/08/24 11:33:34;;;;;;;4.47;2.30;;;21.90;99.90;;;;;;4996836;28;20050;-86
2021/08/24 11:39:36;;;;;;;5.35;2.03;;;22.00;99.90;;;;;;5028646;28;20048;-81
2021/08/24 11:42:04;;;;;;;3.78;2.03;;;22.10;99.90;;;;;;4997316;28;20041;-81
2021/08/24 11:44:52;;;;;;;5.65;2.08;;;22.40;99.90;;;;;;5013429;28;20053;-80
2021/08/24 11:47:44;;;;;;;7.07;2.35;;;22.40;99.90;;;;;;5010886;28;20160;-81
2021/08/24 11:50:16;;;;;;;6.13;2.20;;;22.20;99.90;;;;;;4972652;28;20140;-81
2021/08/24 11:53:02;;;;;;;4.55;1.90;;;22.10;99.90;;;;;;4970901;28;20047;-81
2021/08/24 11:55:34;;;;;;;4.05;2.00;;;21.90;99.90;;;;;;4954103;28;20056;-80
2021/08/24 11:58:14;;;;;;;5.13;2.00;;;21.70;99.90;;;;;;4970585;28;20054;-79
2021/08/24 12:00:40;;;;;;;3.20;2.10;;;21.60;99.90;;;;;;4984169;28;20062;-80
2021/08/24 12:03:13;;;;;;;5.70;2.47;;;21.50;99.90;;;;;;4954897;28;20125;-81
2021/08/24 12:05:46;;;;;;;6.93;2.45;;;21.30;99.90;;;;;;4958754;28;20055;-80
2021/08/24 12:08:21;;;;;;;5.78;2.40;;;21.20;99.90;;;;;;5003773;28;20149;-79
2021/08/24 12:10:49;;;;;;;3.60;2.35;;;21.50;99.90;;;;;;5002503;28;20179;-80
2021/08/24 12:13:46;;;;;;;10.85;2.58;;;22.00;99.90;;;;;;4988272;28;20510;-80
2021/08/24 12:16:20;;;;;;;5.07;2.15;;;21.90;99.90;;;;;;4990161;28;20096;-79
2021/08/24 12:18:50;;;;;;;7.80;2.20;;;21.50;99.90;;;;;;5001483;28;20108;-80
2021/08/24 12:21:27;;;;;;;4.82;2.10;;;21.30;99.90;;;;;;4989648;28;20464;-80
2021/08/24 12:23:57;;;;;;;6.20;2.60;;;21.10;99.90;;;;;;4983853;28;20061;-84
2021/08/24 12:26:34;;;;;;;7.90;2.45;;;20.90;99.90;;;;;;5017929;28;20359;-80
2021/08/24 12:29:32;;;;;;;5.68;2.10;;;20.90;99.90;;;;;;5051486;28;20135;-80
2021/08/24 12:32:00;;;;;;;11.15;2.83;;;20.90;99.90;;;;;;5065279;28;20052;-80
2021/08/24 12:34:34;;;;;;;6.30;2.35;;;20.80;99.90;;;;;;5066255;28;20064;-79
2021/08/24 12:37:18;;;;;;;7.38;2.38;;;21.00;99.90;;;;;;5063758;28;20040;-80
2021/08/24 12:39:47;;;;;;;9.20;2.83;;;21.60;99.90;;;;;;5050081;28;20048;-80
2021/08/24 12:42:41;;;;;;;7.05;2.55;;;22.20;99.90;;;;;;5049478;28;20033;-82
2021/08/24 12:45:10;;;;;;;5.40;2.63;;;22.40;99.90;;;;;;5049265;28;20084;-80
2021/08/24 12:48:08;;;;;;;7.95;2.55;;;22.00;99.90;;;;;;5049352;28;20032;-80
2021/08/24 12:50:33;;;;;;;8.65;2.35;;;21.60;99.90;;;;;;5056287;28;20054;-81
2021/08/24 12:53:26;;;;;;;7.15;2.53;;;21.40;99.90;;;;;;5051958;28;20044;-82
2021/08/24 12:55:52;;;;;;;6.80;2.35;;;21.20;99.90;;;;;;5063352;28;20090;-81
2021/08/24 12:58:42;;;;;;;9.35;2.28;;;21.20;99.90;;;;;;5031401;28;20048;-80
2021/08/24 13:01:38;;;;;;;8.18;2.10;;;21.40;99.90;;;;;;5061007;28;20059;-81
2021/08/24 13:04:14;;;;;;;5.90;2.33;;;22.00;99.90;;;;;;5067927;28;20056;-81
2021/08/24 13:06:42;;;;;;;7.28;2.50;;;22.20;99.90;;;;;;5052593;28;20376;-83
2021/08/24 13:09:35;;;;;;;6.80;2.20;;;22.00;99.90;;;;;;5052498;28;20491;-82
2021/08/24 13:12:07;;;;;;;7.88;2.38;;;21.60;99.90;;;;;;5070024;28;20155;-81
2021/08/24 13:14:55;;;;;;;10.63;2.33;;;21.50;99.90;;;;;;5048073;28;20052;-81